createdAt,value
2018-03-27T00:04:39.775Z,81
2018-03-27T00:10:07.816Z,81
2018-03-27T00:15:34.808Z,81
2018-03-27T00:21:01.969Z,82
2018-03-27T00:26:28.868Z,82
2018-03-27T00:31:55.893Z,81
2018-03-27T00:37:23.918Z,82
2018-03-27T00:42:51.931Z,82
2018-03-27T00:48:18.954Z,82
2018-03-27T00:53:45.987Z,82
2018-03-27T00:59:14.000Z,82
2018-03-27T01:04:41.215Z,82
2018-03-27T01:10:08.033Z,82
2018-03-27T01:15:35.053Z,82
2018-03-27T01:21:02.035Z,82
2018-03-27T01:26:29.075Z,82
2018-03-27T01:31:57.032Z,82
2018-03-27T01:37:25.056Z,82
2018-03-27T01:42:53.063Z,82
2018-03-27T01:48:21.022Z,82
2018-03-27T01:53:48.044Z,82
2018-03-27T01:59:16.052Z,82
2018-03-27T02:04:43.093Z,83
2018-03-27T02:10:11.065Z,83
2018-03-27T02:15:38.063Z,83
2018-03-27T02:21:05.041Z,83
2018-03-27T02:26:33.038Z,83
2018-03-27T02:32:01.068Z,83
2018-03-27T02:37:28.092Z,83
2018-03-27T02:42:56.086Z,83
2018-03-27T02:48:24.082Z,83
2018-03-27T02:53:51.133Z,83
2018-03-27T02:59:19.007Z,83
2018-03-27T03:04:47.024Z,83
2018-03-27T03:10:14.053Z,83
2018-03-27T03:15:41.035Z,83
2018-03-27T03:21:09.063Z,83
2018-03-27T03:26:37.070Z,83
2018-03-27T03:32:05.067Z,84
2018-03-27T03:37:33.088Z,84
2018-03-27T03:43:00.118Z,84
2018-03-27T03:48:28.092Z,84
2018-03-27T03:53:55.111Z,84
2018-03-27T03:59:22.122Z,84
2018-03-27T04:04:50.113Z,84
2018-03-27T04:10:18.118Z,84
2018-03-27T04:15:45.226Z,84
2018-03-27T04:21:13.300Z,84
2018-03-27T04:26:40.223Z,84
2018-03-27T04:32:08.294Z,84
2018-03-27T04:37:36.226Z,84
2018-03-27T04:43:03.388Z,84
2018-03-27T04:48:31.254Z,84
2018-03-27T04:53:58.308Z,84
2018-03-27T04:59:25.779Z,84
2018-03-27T05:04:52.295Z,84
2018-03-27T05:10:20.379Z,84
2018-03-27T05:15:48.348Z,84
2018-03-27T05:21:15.463Z,84
2018-03-27T05:26:43.371Z,84
2018-03-27T05:32:11.386Z,84
2018-03-27T05:37:39.378Z,84
2018-03-27T05:43:06.382Z,85
2018-03-27T05:48:33.361Z,85
2018-03-27T05:54:00.381Z,85
2018-03-27T05:59:28.423Z,85
2018-03-27T06:04:56.358Z,85
2018-03-27T06:10:23.354Z,85
2018-03-27T06:15:51.345Z,85
2018-03-27T06:21:18.343Z,85
2018-03-27T06:26:45.390Z,85
2018-03-27T06:32:12.377Z,85
2018-03-27T06:37:40.387Z,85
2018-03-27T06:43:07.363Z,85
2018-03-27T06:48:35.352Z,85
2018-03-27T06:54:03.364Z,85
2018-03-27T06:59:31.336Z,85
2018-03-27T07:04:59.366Z,85
2018-03-27T07:10:27.386Z,85
2018-03-27T07:15:54.435Z,85
2018-03-27T07:21:21.555Z,85
2018-03-27T07:26:49.593Z,85
2018-03-27T07:32:16.504Z,85
2018-03-27T07:37:43.535Z,85
2018-03-27T07:43:11.556Z,85
2018-03-27T07:48:39.630Z,85
2018-03-27T07:54:07.713Z,85
2018-03-27T07:59:34.743Z,85
2018-03-27T08:05:02.833Z,85
2018-03-27T08:10:29.846Z,85
2018-03-27T08:15:56.978Z,85
2018-03-27T08:21:23.989Z,85
2018-03-27T08:26:52.068Z,85
2018-03-27T08:32:20.277Z,85
2018-03-27T08:37:48.255Z,85
2018-03-27T08:43:15.346Z,85
2018-03-27T08:48:43.502Z,85
2018-03-27T08:54:10.585Z,85
2018-03-27T08:59:37.726Z,85
2018-03-27T09:05:05.834Z,85
2018-03-27T09:10:34.013Z,84
2018-03-27T09:16:02.205Z,85
2018-03-27T09:21:29.482Z,85
2018-03-27T09:26:56.644Z,85
2018-03-27T09:32:25.088Z,85
2018-03-27T09:37:52.064Z,85
2018-03-27T09:43:19.313Z,84
2018-03-27T09:48:47.603Z,84
2018-03-27T09:54:15.846Z,85
2018-03-27T09:59:43.084Z,84
2018-03-27T10:05:11.626Z,84
2018-03-27T10:10:38.582Z,83
2018-03-27T10:16:06.904Z,82
2018-03-27T10:21:35.342Z,83
2018-03-27T10:27:03.534Z,83
2018-03-27T10:32:30.894Z,83
2018-03-27T10:37:59.170Z,83
2018-03-27T10:43:26.497Z,83
2018-03-27T10:48:53.863Z,83
2018-03-27T10:54:21.181Z,82
2018-03-27T10:59:49.569Z,82
2018-03-27T11:05:17.792Z,82
2018-03-27T11:10:46.118Z,81
2018-03-27T11:16:14.545Z,81
2018-03-27T11:21:42.730Z,81
2018-03-27T11:27:10.066Z,81
2018-03-27T11:32:38.372Z,80
2018-03-27T11:38:06.744Z,80
2018-03-27T11:43:34.068Z,80
2018-03-27T11:49:01.443Z,80
2018-03-27T11:54:28.894Z,80
2018-03-27T11:59:57.268Z,80
2018-03-27T12:05:24.795Z,80
2018-03-27T12:10:53.144Z,79
2018-03-27T12:16:21.653Z,79
2018-03-27T12:21:50.158Z,79
2018-03-27T12:27:18.838Z,78
2018-03-27T12:32:46.587Z,78
2018-03-27T12:38:15.526Z,78
2018-03-27T12:43:43.323Z,80
2018-03-27T12:49:12.123Z,80
2018-03-27T12:54:40.966Z,78
2018-03-27T13:00:09.681Z,78
2018-03-27T13:05:37.419Z,78
2018-03-27T13:11:06.065Z,78
2018-03-27T13:16:34.622Z,77
2018-03-27T13:22:03.192Z,76
2018-03-27T13:27:31.700Z,74
2018-03-27T13:32:59.528Z,73
2018-03-27T13:38:27.160Z,72
2018-03-27T13:43:54.976Z,74
2018-03-27T13:49:22.809Z,76
2018-03-27T13:54:51.525Z,76
2018-03-27T14:00:19.391Z,75
2018-03-27T14:05:46.736Z,74
2018-03-27T14:11:15.127Z,73
2018-03-27T14:16:43.749Z,73
2018-03-27T14:22:10.996Z,72
2018-03-27T14:27:39.384Z,72
2018-03-27T14:33:07.763Z,72
2018-03-27T14:38:35.180Z,72
2018-03-27T14:44:02.480Z,72
2018-03-27T14:49:30.821Z,72
2018-03-27T14:54:58.161Z,72
2018-03-27T15:00:26.457Z,72
2018-03-27T15:05:53.835Z,72
2018-03-27T15:11:22.109Z,72
2018-03-27T15:16:50.470Z,72
2018-03-27T15:22:18.651Z,72
2018-03-27T15:27:45.965Z,72
2018-03-27T15:33:13.249Z,72
2018-03-27T15:38:41.560Z,72
2018-03-27T15:44:09.819Z,72
2018-03-27T15:49:37.054Z,72
2018-03-27T15:55:04.341Z,73
2018-03-27T16:00:32.692Z,73
2018-03-27T16:05:59.859Z,73
2018-03-27T16:11:27.116Z,73
2018-03-27T16:16:55.322Z,73
2018-03-27T16:22:22.527Z,73
2018-03-27T16:27:50.722Z,73
2018-03-27T16:33:17.972Z,74
2018-03-27T16:38:46.344Z,74
2018-03-27T16:44:14.319Z,74
2018-03-27T16:49:41.470Z,74
2018-03-27T16:55:09.673Z,74
2018-03-27T17:00:36.811Z,74
2018-03-27T17:06:04.092Z,74
2018-03-27T17:11:32.337Z,74
2018-03-27T17:17:00.404Z,74
2018-03-27T17:22:28.542Z,74
2018-03-27T17:27:56.694Z,75
2018-03-27T17:33:24.855Z,75
2018-03-27T17:38:53.025Z,75
2018-03-27T17:44:21.237Z,75
2018-03-27T17:49:49.485Z,75
2018-03-27T17:55:17.315Z,75
2018-03-27T18:00:45.388Z,75
2018-03-27T18:06:12.525Z,75
2018-03-27T18:11:40.653Z,75
2018-03-27T18:17:07.724Z,75
2018-03-27T18:22:35.805Z,75
2018-03-27T18:28:02.970Z,76
2018-03-27T18:33:30.985Z,76
2018-03-27T18:38:58.089Z,76
2018-03-27T18:44:25.145Z,76
2018-03-27T18:49:53.256Z,76
2018-03-27T18:55:21.321Z,76
2018-03-27T19:00:48.437Z,76
2018-03-27T19:06:15.581Z,76
2018-03-27T19:11:42.621Z,76
2018-03-27T19:17:10.714Z,76
2018-03-27T19:22:38.813Z,77
2018-03-27T19:28:06.898Z,77
2018-03-27T19:33:33.988Z,77
2018-03-27T19:39:01.074Z,77
2018-03-27T19:44:29.113Z,77
2018-03-27T19:49:57.195Z,77
2018-03-27T19:55:24.264Z,77
2018-03-27T20:00:51.632Z,77
2018-03-27T20:06:18.572Z,77
2018-03-27T20:11:45.555Z,77
2018-03-27T20:17:13.476Z,77
2018-03-27T20:22:40.564Z,78
2018-03-27T20:28:08.677Z,78
2018-03-27T20:33:35.617Z,78
2018-03-27T20:39:03.651Z,78
2018-03-27T20:44:30.702Z,78
2018-03-27T20:49:57.793Z,78
2018-03-27T20:55:24.762Z,78
2018-03-27T21:00:52.805Z,78
2018-03-27T21:06:19.838Z,78
2018-03-27T21:11:46.937Z,78
2018-03-27T21:17:14.925Z,78
2018-03-27T21:22:43.143Z,78
2018-03-27T21:28:09.976Z,79
2018-03-27T21:33:36.989Z,79
2018-03-27T21:39:04.175Z,79
2018-03-27T21:44:31.011Z,79
2018-03-27T21:49:58.074Z,79
2018-03-27T21:55:26.042Z,79
2018-03-27T22:00:53.029Z,79
2018-03-27T22:06:20.068Z,79
2018-03-27T22:11:47.041Z,79
2018-03-27T22:17:14.034Z,79
2018-03-27T22:22:42.095Z,79
2018-03-27T22:28:10.102Z,79
2018-03-27T22:33:38.080Z,79
2018-03-27T22:39:05.045Z,79
2018-03-27T22:44:33.096Z,79
2018-03-27T22:50:00.120Z,79
2018-03-27T22:55:27.083Z,79
2018-03-27T23:00:54.998Z,80
2018-03-27T23:06:21.925Z,80
2018-03-27T23:11:48.930Z,80
2018-03-27T23:17:16.886Z,80
2018-03-27T23:22:44.846Z,80
2018-03-27T23:28:12.752Z,80
2018-03-27T23:33:40.704Z,80
2018-03-27T23:39:07.623Z,80
2018-03-27T23:44:35.706Z,80
2018-03-27T23:50:03.468Z,80
2018-03-27T23:55:31.398Z,80
